Acton, Indiana
Current Conditions -  °F | °C
As of 7:53 PM on Tuesday 21 Oct 2014 (Local Time) from KGEZ Reporting Station
Few Clouds Few Clouds  
Wind Chill: 50°   Ceiling: Unl
Heat Index: 50°   Visibility: 10mi
Dew Point: 41°   Wind: 3mph
Humidity: 71%   Direction: 360°N
Pressure: 30.13"   Gusts: NA
Location:  39.6613°N, 85.9949°W
Report Text: KGEZ 212353Z AUTO 36003KT 10SM FEW055 10/05 A3013 RMK AO2 SLP205 T01000050 10144 20100 51013
Loading
Personal Weather Stations






























Interactive Weather Map New forecast layout! Learn more

10-Day Weather Forecast

Advertisements
Track Severe Weather on mobile